Tigga — MBFX5 — position and weather

sailwx.info

Track history (hours):
 
Tides and Currents Weather Stations Pressure Air Temp Water Temp Dewpoint Dewpoint Depression Visibility Wind Speed Wind Dir Waves Ship Positions

Tigga

Last reported at 2018-May-15 17:38 UTC. Time now 2018-Aug-15 03:01 UTC.
Position N 41°11' E 001°53'.
Warning: this ship's position is months out of date.

Type: Pleasure craft. MMSI: 232008860.

Date/timePositionNaut miles runAvg speedWind from/ knotsBaromVisibWave heightAir tempDewpointWater temp
2018-May-15 17:38N 41°11' E 001°53'1 6.3
2018-May-15 17:28N 41°12' E 001°52'3 5.2
2018-May-15 16:57N 41°14' E 001°50'0 0.8
2018-May-15 16:21N 41°14' E 001°49'0 1.0
2018-May-15 16:00N 41°14' E 001°49'0 0.6
2018-May-15 15:23N 41°14' E 001°49'0 0.0
2018-May-15 14:56N 41°14' E 001°49'0 0.0
2018-May-15 14:11N 41°14' E 001°49'0 0.0
2018-May-15 13:56N 41°14' E 001°49'0 0.0
2018-May-15 13:26N 41°14' E 001°49'0 0.0
2018-May-15 12:56N 41°14' E 001°49'0 0.0
2018-May-15 12:26N 41°14' E 001°49'0 0.0
2018-May-15 11:56N 41°14' E 001°49'0 0.0
2018-May-15 11:26N 41°14' E 001°49'0 0.0
2018-May-15 10:56N 41°14' E 001°49'0 0.0
2018-May-15 10:23N 41°14' E 001°49'0 0.0
2018-May-15 09:53N 41°14' E 001°49'0 0.1
2018-May-15 09:29N 41°14' E 001°49'1 2.4
2018-May-15 09:00N 41°13' E 001°50'1 1.7
2018-May-15 08:30N 41°12' E 001°51'0 0.2
2018-May-15 07:50N 41°12' E 001°51'0 0.2
2018-May-15 07:22N 41°12' E 001°51'2 5.1
2018-May-15 07:00N 41°14' E 001°49'0 0.5
2018-May-15 06:28N 41°14' E 001°49'0 0.0
2018-May-15 05:58N 41°14' E 001°49'0 0.0
2018-May-15 05:25N 41°14' E 001°49'0 0.0
2018-May-15 04:46N 41°14' E 001°49'0 0.0
2018-May-15 04:13N 41°14' E 001°49'0 0.0
2018-May-15 03:58N 41°14' E 001°49'0 0.0
2018-May-15 03:28N 41°14' E 001°49'0 0.0
2018-May-15 02:46N 41°14' E 001°49'0 0.0
2018-May-15 02:28N 41°14' E 001°49'0 0.0
2018-May-15 01:58N 41°14' E 001°49'0 0.0
2018-May-15 01:28N 41°14' E 001°49'0 0.0
2018-May-15 00:58N 41°14' E 001°49'0 0.0
2018-May-15 00:28N 41°14' E 001°49'0 0.0
2018-May-14 23:58N 41°14' E 001°49'0 0.0
2018-May-14 23:28N 41°14' E 001°49'0 0.0
2018-May-14 22:58N 41°14' E 001°49'0 0.0
2018-May-14 22:28N 41°14' E 001°49'0 0.0
2018-May-14 21:58N 41°14' E 001°49'0 0.0
2018-May-14 21:19N 41°14' E 001°49'0 0.0
2018-May-14 20:49N 41°14' E 001°49'0 0.0
2018-May-14 20:19N 41°14' E 001°49'0 0.0
2018-May-14 19:49N 41°14' E 001°49'0 0.0
2018-May-14 19:19N 41°14' E 001°49'0 0.0
2018-May-14 18:52N 41°14' E 001°49'0 0.0
2018-May-14 18:22N 41°14' E 001°49'0 0.0
2018-May-14 17:52N 41°14' E 001°49'0 0.0
2018-May-14 17:22N 41°14' E 001°49'0 0.0
2018-May-14 16:52N 41°14' E 001°49'0 0.0
2018-May-14 16:22N 41°14' E 001°49'0 0.0
2018-May-14 15:52N 41°14' E 001°49'0 0.0
2018-May-14 15:07N 41°14' E 001°49'0 0.0
2018-May-14 14:52N 41°14' E 001°49'0 0.0
2018-May-14 14:25N 41°14' E 001°49'0 0.0
2018-May-14 13:55N 41°14' E 001°49'0 0.0
2018-May-14 13:25N 41°14' E 001°49'0 0.0
2018-May-14 12:55N 41°14' E 001°49'0 0.0
2018-May-14 12:25N 41°14' E 001°49'0 0.0
2018-May-14 11:55N 41°14' E 001°49'0 0.0
2018-May-14 11:25N 41°14' E 001°49'0 0.0
2018-May-14 10:55N 41°14' E 001°49'0 0.0
2018-May-14 10:25N 41°14' E 001°49'0 0.0
2018-May-14 09:55N 41°14' E 001°49'0 0.0
2018-May-14 09:22N 41°14' E 001°49'0 0.0
2018-May-14 08:55N 41°14' E 001°49'0 0.0
2018-May-14 08:27N 41°14' E 001°49'0 0.0
2018-May-14 07:55N 41°14' E 001°49'0 0.0
2018-May-14 07:27N 41°14' E 001°49'0 0.0
2018-May-14 06:57N 41°14' E 001°49'0 0.0
2018-May-14 06:27N 41°14' E 001°49'0 0.0
2018-May-14 05:54N 41°14' E 001°49'0 0.0
2018-May-14 05:27N 41°14' E 001°49'0 0.0
2018-May-14 04:57N 41°14' E 001°49'0 0.0
2018-May-14 04:30N 41°14' E 001°49'0 0.0
2018-May-14 04:00N 41°14' E 001°49'0 0.0
2018-May-14 03:30N 41°14' E 001°49'0 0.0
2018-May-14 03:00N 41°14' E 001°49'0 0.0
2018-May-14 02:30N 41°14' E 001°49'0 0.0
2018-May-14 02:00N 41°14' E 001°49'0 0.0
2018-May-14 01:30N 41°14' E 001°49'0 0.0
2018-May-14 01:00N 41°14' E 001°49'0 0.0
2018-May-14 00:30N 41°14' E 001°49'0 0.0
2018-May-14 00:00N 41°14' E 001°49'0 0.0
2018-May-13 23:30N 41°14' E 001°49'0 0.0
2018-May-13 23:00N 41°14' E 001°49'0 0.0
2018-May-13 22:30N 41°14' E 001°49'0 0.0
2018-May-13 22:00N 41°14' E 001°49'0 0.0
2018-May-13 21:30N 41°14' E 001°49'0 0.0
2018-May-13 21:00N 41°14' E 001°49'0 0.0
2018-May-13 20:30N 41°14' E 001°49'0 0.0
2018-May-13 20:00N 41°14' E 001°49'0 0.0
2018-May-13 19:30N 41°14' E 001°49'0 0.0
2018-May-13 19:00N 41°14' E 001°49'0 0.0
2018-May-13 18:21N 41°14' E 001°49'0 0.0
2018-May-13 18:00N 41°14' E 001°49'0 0.0
2018-May-13 17:30N 41°14' E 001°49'0 0.0
2018-May-13 17:00N 41°14' E 001°49'0 0.0
2018-May-13 16:21N 41°14' E 001°49'0 0.0
2018-May-13 15:51N 41°14' E 001°49'0 0.0
2018-May-13 15:21N 41°14' E 001°49'0 0.0
2018-May-13 14:51N 41°14' E 001°49'0 0.0
2018-May-13 14:21N 41°14' E 001°49'0 0.0
2018-May-13 13:54N 41°14' E 001°49'0 0.0
2018-May-13 13:24N 41°14' E 001°49'0 0.0
2018-May-13 12:51N 41°14' E 001°49'0 0.0
2018-May-13 10:06N 41°14' E 001°49'0 0.0
2018-May-13 09:54N 41°14' E 001°49'0 0.0
2018-May-13 09:27N 41°14' E 001°49'0 0.0
2018-May-13 08:54N 41°14' E 001°49'0 0.0
2018-May-13 08:27N 41°14' E 001°49'0 0.0
2018-May-13 07:57N 41°14' E 001°49'0 0.0
2018-May-13 07:24N 41°14' E 001°49'0 0.0
2018-May-13 06:57N 41°14' E 001°49'0 0.0
2018-May-13 06:27N 41°14' E 001°49'0 0.0
2018-May-13 05:57N 41°14' E 001°49'0 0.0
2018-May-13 05:30N 41°14' E 001°49'0 0.0
2018-May-13 05:00N 41°14' E 001°49'0 0.0
2018-May-13 04:30N 41°14' E 001°49'0 0.0
2018-May-13 04:00N 41°14' E 001°49'0 0.0
2018-May-13 03:27N 41°14' E 001°49'0 0.0
2018-May-13 03:00N 41°14' E 001°49'0 0.0
2018-May-13 02:30N 41°14' E 001°49'0 0.0
2018-May-13 02:00N 41°14' E 001°49'0 0.0
2018-May-13 01:30N 41°14' E 001°49'0 0.0
2018-May-13 01:00N 41°14' E 001°49'0 0.0
2018-May-13 00:30N 41°14' E 001°49'0 0.0
2018-May-13 00:00N 41°14' E 001°49'0 0.0
2018-May-12 23:30N 41°14' E 001°49'0 0.0
2018-May-12 23:00N 41°14' E 001°49'0 0.0
2018-May-12 22:30N 41°14' E 001°49'0 0.0
2018-May-12 22:00N 41°14' E 001°49'0 0.0
2018-May-12 21:21N 41°14' E 001°49'0 0.0
2018-May-12 21:00N 41°14' E 001°49'0 0.0
2018-May-12 20:21N 41°14' E 001°49'0 0.0
2018-May-12 19:51N 41°14' E 001°49'0 0.0
2018-May-12 19:24N 41°14' E 001°49'0 0.0
2018-May-12 18:54N 41°14' E 001°49'0 0.0
2018-May-12 18:24N 41°14' E 001°49'0 0.0
2018-May-12 17:54N 41°14' E 001°49'0 0.0
2018-May-12 17:24N 41°14' E 001°49'0 0.0
2018-May-12 16:54N 41°14' E 001°49'0 0.0
2018-May-12 16:24N 41°14' E 001°49'0 0.0
2018-May-12 15:54N 41°14' E 001°49'0 0.0
2018-May-12 15:27N 41°14' E 001°49'0 0.0
2018-May-12 14:51N 41°14' E 001°49'0 0.0
2018-May-12 14:27N 41°14' E 001°49'0 0.0
2018-May-12 13:57N 41°14' E 001°49'0 0.0
2018-May-12 13:27N 41°14' E 001°49'0 0.0
2018-May-12 12:57N 41°14' E 001°49'0 0.0
2018-May-12 12:27N 41°14' E 001°49'0 0.0
2018-May-12 11:57N 41°14' E 001°49'0 0.0
2018-May-12 11:27N 41°14' E 001°49'0 0.0
2018-May-12 11:00N 41°14' E 001°49'0 0.0
2018-May-12 10:26N 41°14' E 001°49'0 0.0
2018-May-12 09:59N 41°14' E 001°49'0 0.0
2018-May-12 09:29N 41°14' E 001°49'0 0.0
2018-May-12 08:56N 41°14' E 001°49'0 0.0
2018-May-12 08:29N 41°14' E 001°49'0 0.0
2018-May-12 07:59N 41°14' E 001°49'0 0.0
2018-May-12 07:29N 41°14' E 001°49'0 0.0
2018-May-12 06:59N 41°14' E 001°49'0 0.0
2018-May-12 06:26N 41°14' E 001°49'0 0.0
2018-May-12 05:59N 41°14' E 001°49'0 0.0
2018-May-12 05:29N 41°14' E 001°49'0 0.0
2018-May-12 04:59N 41°14' E 001°49'0 0.0
2018-May-12 04:29N 41°14' E 001°49'0 0.0
2018-May-12 03:59N 41°14' E 001°49'0 0.0
2018-May-12 03:29N 41°14' E 001°49'0 0.0
2018-May-12 02:59N 41°14' E 001°49'0 0.0
2018-May-12 02:29N 41°14' E 001°49'0 0.0
2018-May-12 01:59N 41°14' E 001°49'0 0.0
2018-May-12 01:29N 41°14' E 001°49'0 0.0
2018-May-12 00:59N 41°14' E 001°49'0 0.0
2018-May-12 00:29N 41°14' E 001°49'0 0.0
2018-May-11 23:59N 41°14' E 001°49'0 0.0
2018-May-11 23:29N 41°14' E 001°49'0 0.0
2018-May-11 22:59N 41°14' E 001°49'0 0.0
2018-May-11 22:20N 41°14' E 001°49'0 0.0
2018-May-11 21:50N 41°14' E 001°49'0 0.0
2018-May-11 21:20N 41°14' E 001°49'0 0.0
2018-May-11 20:53N 41°14' E 001°49'0 0.0
2018-May-11 20:20N 41°14' E 001°49'0 0.0
2018-May-11 19:53N 41°14' E 001°49'0 0.0
2018-May-11 19:23N 41°14' E 001°49'0 0.0
2018-May-11 18:53N 41°14' E 001°49'0 0.0
2018-May-11 18:23N 41°14' E 001°49'0 0.0
2018-May-11 17:53N 41°14' E 001°49'0 0.0
2018-May-11 17:23N 41°14' E 001°49'0 0.0
2018-May-11 16:53N 41°14' E 001°49'0 0.0
2018-May-11 16:26N 41°14' E 001°49'0 0.0
2018-May-11 15:53N 41°14' E 001°49'0 0.0
2018-May-11 15:26N 41°14' E 001°49'0 0.0
2018-May-11 14:56N 41°14' E 001°49'0 0.0
2018-May-11 14:26N 41°14' E 001°49'0 0.0
2018-May-11 13:56N 41°14' E 001°49'0 0.0
2018-May-11 13:29N 41°14' E 001°49'0 0.0
2018-May-11 12:59N 41°14' E 001°49'0 0.0
2018-May-11 12:29N 41°14' E 001°49'0 0.0
2018-May-11 11:59N 41°14' E 001°49'0 0.0
2018-May-11 11:29N 41°14' E 001°49'0 0.0
2018-May-11 10:59N 41°14' E 001°49'0 0.0
2018-May-11 10:29N 41°14' E 001°49'0 0.0
2018-May-11 09:59N 41°14' E 001°49'0 0.0
2018-May-11 09:29N 41°14' E 001°49'0 0.0
2018-May-11 08:59N 41°14' E 001°49'0 0.0
2018-May-11 08:26N 41°14' E 001°49'0 0.0
2018-May-11 07:59N 41°14' E 001°49'0 0.0
2018-May-11 07:29N 41°14' E 001°49'0 0.0
2018-May-11 06:59N 41°14' E 001°49'0 0.0
2018-May-11 06:29N 41°14' E 001°49'0 0.0
2018-May-11 05:47N 41°14' E 001°49'0 0.0
2018-May-11 05:29N 41°14' E 001°49'0 0.0
2018-May-11 04:59N 41°14' E 001°49'0 0.0
2018-May-11 04:29N 41°14' E 001°49'0 0.0
2018-May-11 03:59N 41°14' E 001°49'0 0.0
2018-May-11 03:29N 41°14' E 001°49'0 0.0
2018-May-11 02:59N 41°14' E 001°49'0 0.0
2018-May-11 02:29N 41°14' E 001°49'0 0.0
2018-May-11 01:47N 41°14' E 001°49'0 0.0
2018-May-11 01:20N 41°14' E 001°49'0 0.0
2018-May-11 00:50N 41°14' E 001°49'0 0.0
2018-May-11 00:20N 41°14' E 001°49'0 0.0
2018-May-10 23:53N 41°14' E 001°49'0 0.0
2018-May-10 23:23N 41°14' E 001°49'0 0.0
2018-May-10 22:53N 41°14' E 001°49'0 0.0
2018-May-10 22:23N 41°14' E 001°49'0 0.0
2018-May-10 21:53N 41°14' E 001°49'0 0.0
2018-May-10 21:23N 41°14' E 001°49'0 0.0
2018-May-10 20:50N 41°14' E 001°49'0 0.0
2018-May-10 20:08N 41°14' E 001°49'0 0.0
2018-May-10 19:53N 41°14' E 001°49'0 0.0
2018-May-10 19:26N 41°14' E 001°49'0 0.0
2018-May-10 18:53N 41°14' E 001°49'0 0.0
2018-May-10 18:26N 41°14' E 001°49'0 0.0
2018-May-10 17:56N 41°14' E 001°49'0 0.0
2018-May-10 17:23N 41°14' E 001°49'0 0.0
2018-May-10 16:56N 41°14' E 001°49'0 0.0
2018-May-10 16:23N 41°14' E 001°49'0 0.0
2018-May-10 15:56N 41°14' E 001°49'0 0.0
2018-May-10 15:26N 41°14' E 001°49'0 0.0
2018-May-10 14:59N 41°14' E 001°49'0 0.0
2018-May-10 14:29N 41°14' E 001°49'0 0.0
2018-May-10 13:59N 41°14' E 001°49'0 0.0
2018-May-10 13:29N 41°14' E 001°49'0 0.0
2018-May-10 12:56N 41°14' E 001°49'0 0.0
2018-May-10 12:29N 41°14' E 001°49'0 0.0
2018-May-10 11:56N 41°14' E 001°49'0 0.0
2018-May-10 11:29N 41°14' E 001°49'0 0.0
2018-May-10 10:59N 41°14' E 001°49'0 0.0
2018-May-10 10:28N 41°14' E 001°49'0 0.0
2018-May-10 08:58N 41°14' E 001°49'0 0.0
2018-May-10 08:28N 41°14' E 001°49'0 0.0
2018-May-10 04:49N 41°14' E 001°49'0 0.0
2018-May-10 04:22N 41°14' E 001°49'0 0.0
2018-May-10 03:04N 41°14' E 001°49'0 0.0
2018-May-10 02:55N 41°14' E 001°49'0 0.0
2018-May-10 01:22N 41°14' E 001°49'0 0.0
2018-May-10 00:59N 41°14' E 001°49'0 0.0
2018-May-10 00:26N 41°14' E 001°49'0 0.0
2018-May-09 23:56N 41°14' E 001°49'0 0.0
2018-May-09 23:25N 41°14' E 001°49'0 0.0
2018-May-09 22:59N 41°14' E 001°49'0 0.0
2018-May-09 22:29N 41°14' E 001°49'0 0.0
2018-May-09 21:59N 41°14' E 001°49'0 0.0
2018-May-09 21:29N 41°14' E 001°49'0 0.0
2018-May-09 20:59N 41°14' E 001°49'0 0.0
2018-May-09 20:29N 41°14' E 001°49'0 0.0
2018-May-09 19:59N 41°14' E 001°49'0 0.0
2018-May-09 19:29N 41°14' E 001°49'0 0.0
2018-May-09 18:50N 41°14' E 001°49'0 0.0
2018-May-09 18:20N 41°14' E 001°49'0 0.0
2018-May-09 17:53N 41°14' E 001°49'0 0.0
2018-May-09 17:02N 41°14' E 001°49'0 0.0
2018-May-09 16:53N 41°14' E 001°49'0 0.0
2018-May-09 16:23N 41°14' E 001°49'0 0.0
2018-May-09 15:53N 41°14' E 001°49'0 0.0
2018-May-09 15:23N 41°14' E 001°49'0 0.0
2018-May-09 14:56N 41°14' E 001°49'0 0.0
2018-May-09 14:26N 41°14' E 001°49'0 0.0
2018-May-09 13:56N 41°14' E 001°49'0 0.0
2018-May-09 13:26N 41°14' E 001°49'0 0.0
2018-May-09 12:56N 41°14' E 001°49'0 0.0
2018-May-09 12:29N 41°14' E 001°49'0 0.0
2018-May-09 11:59N 41°14' E 001°49'0 0.0
2018-May-09 11:28N 41°14' E 001°49'0 0.0
2018-May-09 10:49N 41°14' E 001°49'0 0.0
2018-May-09 10:19N 41°14' E 001°49'0 0.0
2018-May-09 09:49N 41°14' E 001°49'0 0.0
2018-May-09 09:22N 41°14' E 001°49'0 0.0
2018-May-09 08:52N 41°14' E 001°49'0 0.0
2018-May-09 08:19N 41°14' E 001°49'0 0.0
2018-May-09 07:52N 41°14' E 001°49'0 0.0
2018-May-09 07:19N 41°14' E 001°49'0 0.0
2018-May-09 06:55N 41°14' E 001°49'0 0.0
2018-May-09 06:25N 41°14' E 001°49'0 0.0
2018-May-09 05:55N 41°14' E 001°49'0 0.0
2018-May-09 05:25N 41°14' E 001°49'0 0.0
2018-May-09 04:55N 41°14' E 001°49'0 0.0
2018-May-09 04:28N 41°14' E 001°49'0 0.0
2018-May-09 03:58N 41°14' E 001°49'0 0.0
2018-May-09 03:25N 41°14' E 001°49'0 0.0
2018-May-09 02:58N 41°14' E 001°49'0 0.0
2018-May-09 02:25N 41°14' E 001°49'0 0.0
2018-May-09 01:58N 41°14' E 001°49'0 0.0
2018-May-09 01:28N 41°14' E 001°49'0 0.0
2018-May-09 00:58N 41°14' E 001°49'0 0.0
2018-May-09 00:28N 41°14' E 001°49'0 0.0
2018-May-08 23:58N 41°14' E 001°49'0 0.0
2018-May-08 23:28N 41°14' E 001°49'0 0.0
2018-May-08 22:49N 41°14' E 001°49'0 0.0
2018-May-08 22:19N 41°14' E 001°49'0 0.0
2018-May-08 21:49N 41°14' E 001°49'0 0.0
2018-May-08 21:19N 41°14' E 001°49'0 0.0
2018-May-08 20:52N 41°14' E 001°49'0 0.0
2018-May-08 20:22N 41°14' E 001°49'0 0.0
2018-May-08 19:52N 41°14' E 001°49'0 0.0
2018-May-08 19:22N 41°14' E 001°49'0 0.0
2018-May-08 18:52N 41°14' E 001°49'0 0.0
2018-May-08 18:25N 41°14' E 001°49'0 0.0
2018-May-08 17:55N 41°14' E 001°49'0 0.0
2018-May-08 16:28N 41°14' E 001°49'0 0.0
2018-May-08 15:55N 41°14' E 001°49'0 0.0
2018-May-08 15:25N 41°14' E 001°49'0 0.0
2018-May-08 14:58N 41°14' E 001°49'0 0.0
2018-May-08 14:25N 41°14' E 001°49'0 0.0
2018-May-08 13:46N 41°14' E 001°49'0 0.0
2018-May-08 13:25N 41°14' E 001°49'0 0.0
2018-May-08 12:58N 41°14' E 001°49'0 0.0
2018-May-08 12:16N 41°14' E 001°49'0 0.0
2018-May-08 11:43N 41°14' E 001°49'0 0.0
2018-May-08 11:19N 41°14' E 001°49'0 0.0
2018-May-08 10:58N 41°14' E 001°49'0 0.0
2018-May-08 10:28N 41°14' E 001°49'0 0.0
2018-May-08 09:49N 41°14' E 001°49'0 0.0
2018-May-08 09:22N 41°14' E 001°49'0 0.0
2018-May-08 08:52N 41°14' E 001°49'0 0.0
2018-May-08 08:22N 41°14' E 001°49'0 0.0
2018-May-08 07:49N 41°14' E 001°49'0 0.0
2018-May-08 07:22N 41°14' E 001°49'0 0.0
2018-May-08 06:52N 41°14' E 001°49'0 0.0
2018-May-08 06:22N 41°14' E 001°49'0 0.0
2018-May-08 05:55N 41°14' E 001°49'0 0.0
2018-May-08 04:52N 41°14' E 001°49'0 0.0
2018-May-08 04:10N 41°14' E 001°49'0 0.0
2018-May-08 03:52N 41°14' E 001°49'0 0.0
2018-May-08 03:28N 41°14' E 001°49'0 0.0
2018-May-08 02:58N 41°14' E 001°49'0 0.0
2018-May-08 02:28N 41°14' E 001°49'0 0.0
2018-May-08 01:58N 41°14' E 001°49'0 0.0
2018-May-08 01:28N 41°14' E 001°49'0 0.0
2018-May-08 00:58N 41°14' E 001°49'0 0.0
2018-May-08 00:28N 41°14' E 001°49'0 0.0
2018-May-07 23:31N 41°14' E 001°49'0 0.1
2018-May-07 23:28N 41°14' E 001°49'0 0.0
2018-May-07 22:58N 41°14' E 001°49'0 0.0
2018-May-07 22:28N 41°14' E 001°49'0 0.0
2018-May-07 21:49N 41°14' E 001°49'0 0.0
2018-May-07 21:19N 41°14' E 001°49'0 0.0
2018-May-07 20:46N 41°14' E 001°49'0 0.0
2018-May-07 20:01N 41°14' E 001°49'0 0.0
2018-May-07 19:46N 41°14' E 001°49'0 0.0
2018-May-07 19:22N 41°14' E 001°49'0 0.0
2018-May-07 18:07N 41°14' E 001°49'0 0.0
2018-May-07 17:40N 41°14' E 001°49'0 0.0
2018-May-07 17:22N 41°14' E 001°49'0 0.0
2018-May-07 16:55N 41°14' E 001°49'0 0.0
2018-May-07 15:28N 41°14' E 001°49'0 0.0
2018-May-07 14:58N 41°14' E 001°49'0 0.0
2018-May-07 13:25N 41°14' E 001°49'0 0.0
2018-May-07 11:13N 41°14' E 001°49'0 0.0
2018-May-07 10:43N 41°14' E 001°49'0 0.0
2018-May-07 10:28N 41°14' E 001°49'0 0.0
2018-May-07 09:49N 41°14' E 001°49'0 0.0
2018-May-07 09:19N 41°14' E 001°49'0 0.0
2018-May-07 08:07N 41°14' E 001°49'0 0.0
2018-May-07 05:52N 41°14' E 001°49'0 0.0
2018-May-07 05:25N 41°14' E 001°49'0 0.0
2018-May-07 04:52N 41°14' E 001°49'0 0.0
2018-May-07 04:19N 41°14' E 001°49'0 0.0
2018-May-07 03:55N 41°14' E 001°49'0 0.0
2018-May-07 03:25N 41°14' E 001°49'0 0.0
2018-May-07 02:52N 41°14' E 001°49'0 0.0
2018-May-07 02:28N 41°14' E 001°49'0 0.0
2018-May-07 01:58N 41°14' E 001°49'0 0.0
2018-May-07 01:28N 41°14' E 001°49'0 0.0
2018-May-07 00:58N 41°14' E 001°49'0 0.0
2018-May-07 00:28N 41°14' E 001°49'0 0.0
2018-May-06 23:58N 41°14' E 001°49'0 0.0
2018-May-06 23:28N 41°14' E 001°49'0 0.0
2018-May-06 22:58N 41°14' E 001°49'0 0.0
2018-May-06 22:19N 41°14' E 001°49'0 0.0
2018-May-06 21:58N 41°14' E 001°49'0 0.0
2018-May-06 21:13N 41°14' E 001°49'0 0.0
2018-May-06 20:58N 41°14' E 001°49'0 0.0
2018-May-06 20:16N 41°14' E 001°49'0 0.0
2018-May-06 19:46N 41°14' E 001°49'0 0.0
2018-May-06 19:19N 41°14' E 001°49'0 0.0
2018-May-06 18:52N 41°14' E 001°49'0 0.0
2018-May-06 18:22N 41°14' E 001°49'0 0.0
2018-May-06 17:37N 41°14' E 001°49'0 0.0
2018-May-06 17:19N 41°14' E 001°49'0 0.0
2018-May-06 16:55N 41°14' E 001°49'0 0.0
2018-May-06 15:52N 41°14' E 001°49'0 0.0
2018-May-06 15:25N 41°14' E 001°49'0 0.0
2018-May-06 14:52N 41°14' E 001°49'0 0.0
2018-May-06 14:22N 41°14' E 001°49'0 0.0
2018-May-06 13:58N 41°14' E 001°49'0 0.0
2018-May-06 13:25N 41°14' E 001°49'0 0.0
2018-May-06 12:58N 41°14' E 001°49'0 0.0
2018-May-06 12:25N 41°14' E 001°49'0 0.0
2018-May-06 11:58N 41°14' E 001°49'0 0.0
2018-May-06 11:28N 41°14' E 001°49'0 0.0
2018-May-06 10:43N 41°14' E 001°49'0 0.0
2018-May-06 10:28N 41°14' E 001°49'0 0.0
2018-May-06 09:58N 41°14' E 001°49'0 0.0
2018-May-06 09:28N 41°14' E 001°49'0 0.0
2018-May-06 08:49N 41°14' E 001°49'0 0.0
2018-May-06 08:19N 41°14' E 001°49'0 0.0
2018-May-06 07:49N 41°14' E 001°49'0 0.0
2018-May-06 07:16N 41°14' E 001°49'0 0.0
2018-May-06 06:52N 41°14' E 001°49'0 0.0
2018-May-06 06:22N 41°14' E 001°49'0 0.0
2018-May-06 05:52N 41°14' E 001°49'0 0.0
2018-May-06 05:22N 41°14' E 001°49'0 0.0
2018-May-06 04:55N 41°14' E 001°49'0 0.0
2018-May-06 04:22N 41°14' E 001°49'0 0.0
2018-May-06 03:55N 41°14' E 001°49'0 0.0
2018-May-06 03:25N 41°14' E 001°49'0 0.0
2018-May-06 02:55N 41°14' E 001°49'0 0.0
2018-May-06 02:28N 41°14' E 001°49'0 0.0
2018-May-06 01:58N 41°14' E 001°49'0 0.0
2018-May-06 01:25N 41°14' E 001°49'0 0.0
2018-May-06 00:58N 41°14' E 001°49'0 0.0
2018-May-06 00:28N 41°14' E 001°49'0 0.0
2018-May-05 23:58N 41°14' E 001°49'0 0.0
2018-May-05 23:28N 41°14' E 001°49'0 0.0
2018-May-05 22:58N 41°14' E 001°49'0 0.0
2018-May-05 22:28N 41°14' E 001°49'0 0.0
2018-May-05 21:58N 41°14' E 001°49'0 0.0
2018-May-05 21:28N 41°14' E 001°49'0 0.0
2018-May-05 20:49N 41°14' E 001°49'0 0.0
2018-May-05 20:28N 41°14' E 001°49'0 0.0
2018-May-05 19:49N 41°14' E 001°49'0 0.0
2018-May-05 19:22N 41°14' E 001°49'0 0.0
2018-May-05 18:52N 41°14' E 001°49'0 0.0
2018-May-05 18:22N 41°14' E 001°49'0 0.0
2018-May-05 17:52N 41°14' E 001°49'  
Track history (hours):
 
Tides and Currents Weather Stations Pressure Air Temp Water Temp Dewpoint Dewpoint Depression Visibility Wind Speed Wind Dir Waves Ship Positions

Tigga

Last reported at 2018-May-15 17:38 UTC. Time now 2018-Aug-15 03:01 UTC.
Position N 41°11' E 001°53'.
Warning: this ship's position is months out of date.

Type: Pleasure craft. MMSI: 232008860.

Date/timePositionNaut miles runAvg speedWind from/ knotsBaromVisibWave heightAir tempDewpointWater temp
2018-May-15 17:38N 41°11' E 001°53'1 6.3
2018-May-15 17:28N 41°12' E 001°52'3 5.2
2018-May-15 16:57N 41°14' E 001°50'0 0.8
2018-May-15 16:21N 41°14' E 001°49'0 1.0
2018-May-15 16:00N 41°14' E 001°49'0 0.6
2018-May-15 15:23N 41°14' E 001°49'0 0.0
2018-May-15 14:56N 41°14' E 001°49'0 0.0
2018-May-15 14:11N 41°14' E 001°49'0 0.0
2018-May-15 13:56N 41°14' E 001°49'0 0.0
2018-May-15 13:26N 41°14' E 001°49'0 0.0
2018-May-15 12:56N 41°14' E 001°49'0 0.0
2018-May-15 12:26N 41°14' E 001°49'0 0.0
2018-May-15 11:56N 41°14' E 001°49'0 0.0
2018-May-15 11:26N 41°14' E 001°49'0 0.0
2018-May-15 10:56N 41°14' E 001°49'0 0.0
2018-May-15 10:23N 41°14' E 001°49'0 0.0
2018-May-15 09:53N 41°14' E 001°49'0 0.1
2018-May-15 09:29N 41°14' E 001°49'1 2.4
2018-May-15 09:00N 41°13' E 001°50'1 1.7
2018-May-15 08:30N 41°12' E 001°51'0 0.2
2018-May-15 07:50N 41°12' E 001°51'0 0.2
2018-May-15 07:22N 41°12' E 001°51'2 5.1
2018-May-15 07:00N 41°14' E 001°49'0 0.5
2018-May-15 06:28N 41°14' E 001°49'0 0.0
2018-May-15 05:58N 41°14' E 001°49'0 0.0
2018-May-15 05:25N 41°14' E 001°49'0 0.0
2018-May-15 04:46N 41°14' E 001°49'0 0.0
2018-May-15 04:13N 41°14' E 001°49'0 0.0
2018-May-15 03:58N 41°14' E 001°49'0 0.0
2018-May-15 03:28N 41°14' E 001°49'0 0.0
2018-May-15 02:46N 41°14' E 001°49'0 0.0
2018-May-15 02:28N 41°14' E 001°49'0 0.0
2018-May-15 01:58N 41°14' E 001°49'0 0.0
2018-May-15 01:28N 41°14' E 001°49'0 0.0
2018-May-15 00:58N 41°14' E 001°49'0 0.0
2018-May-15 00:28N 41°14' E 001°49'0 0.0
2018-May-14 23:58N 41°14' E 001°49'0 0.0
2018-May-14 23:28N 41°14' E 001°49'0 0.0
2018-May-14 22:58N 41°14' E 001°49'0 0.0
2018-May-14 22:28N 41°14' E 001°49'0 0.0
2018-May-14 21:58N 41°14' E 001°49'0 0.0
2018-May-14 21:19N 41°14' E 001°49'0 0.0
2018-May-14 20:49N 41°14' E 001°49'0 0.0
2018-May-14 20:19N 41°14' E 001°49'0 0.0
2018-May-14 19:49N 41°14' E 001°49'0 0.0
2018-May-14 19:19N 41°14' E 001°49'0 0.0
2018-May-14 18:52N 41°14' E 001°49'0 0.0
2018-May-14 18:22N 41°14' E 001°49'0 0.0
2018-May-14 17:52N 41°14' E 001°49'0 0.0
2018-May-14 17:22N 41°14' E 001°49'0 0.0
2018-May-14 16:52N 41°14' E 001°49'0 0.0
2018-May-14 16:22N 41°14' E 001°49'0 0.0
2018-May-14 15:52N 41°14' E 001°49'0 0.0
2018-May-14 15:07N 41°14' E 001°49'0 0.0
2018-May-14 14:52N 41°14' E 001°49'0 0.0
2018-May-14 14:25N 41°14' E 001°49'0 0.0
2018-May-14 13:55N 41°14' E 001°49'0 0.0
2018-May-14 13:25N 41°14' E 001°49'0 0.0
2018-May-14 12:55N 41°14' E 001°49'0 0.0
2018-May-14 12:25N 41°14' E 001°49'0 0.0
2018-May-14 11:55N 41°14' E 001°49'0 0.0
2018-May-14 11:25N 41°14' E 001°49'0 0.0
2018-May-14 10:55N 41°14' E 001°49'0 0.0
2018-May-14 10:25N 41°14' E 001°49'0 0.0
2018-May-14 09:55N 41°14' E 001°49'0 0.0
2018-May-14 09:22N 41°14' E 001°49'0 0.0
2018-May-14 08:55N 41°14' E 001°49'0 0.0
2018-May-14 08:27N 41°14' E 001°49'0 0.0
2018-May-14 07:55N 41°14' E 001°49'0 0.0
2018-May-14 07:27N 41°14' E 001°49'0 0.0
2018-May-14 06:57N 41°14' E 001°49'0 0.0
2018-May-14 06:27N 41°14' E 001°49'0 0.0
2018-May-14 05:54N 41°14' E 001°49'0 0.0
2018-May-14 05:27N 41°14' E 001°49'0 0.0
2018-May-14 04:57N 41°14' E 001°49'0 0.0
2018-May-14 04:30N 41°14' E 001°49'0 0.0
2018-May-14 04:00N 41°14' E 001°49'0 0.0
2018-May-14 03:30N 41°14' E 001°49'0 0.0
2018-May-14 03:00N 41°14' E 001°49'0 0.0
2018-May-14 02:30N 41°14' E 001°49'0 0.0
2018-May-14 02:00N 41°14' E 001°49'0 0.0
2018-May-14 01:30N 41°14' E 001°49'0 0.0
2018-May-14 01:00N 41°14' E 001°49'0 0.0
2018-May-14 00:30N 41°14' E 001°49'0 0.0
2018-May-14 00:00N 41°14' E 001°49'0 0.0
2018-May-13 23:30N 41°14' E 001°49'0 0.0
2018-May-13 23:00N 41°14' E 001°49'0 0.0
2018-May-13 22:30N 41°14' E 001°49'0 0.0
2018-May-13 22:00N 41°14' E 001°49'0 0.0
2018-May-13 21:30N 41°14' E 001°49'0 0.0
2018-May-13 21:00N 41°14' E 001°49'0 0.0
2018-May-13 20:30N 41°14' E 001°49'0 0.0
2018-May-13 20:00N 41°14' E 001°49'0 0.0
2018-May-13 19:30N 41°14' E 001°49'0 0.0
2018-May-13 19:00N 41°14' E 001°49'0 0.0
2018-May-13 18:21N 41°14' E 001°49'0 0.0
2018-May-13 18:00N 41°14' E 001°49'0 0.0
2018-May-13 17:30N 41°14' E 001°49'0 0.0
2018-May-13 17:00N 41°14' E 001°49'0 0.0
2018-May-13 16:21N 41°14' E 001°49'0 0.0
2018-May-13 15:51N 41°14' E 001°49'0 0.0
2018-May-13 15:21N 41°14' E 001°49'0 0.0
2018-May-13 14:51N 41°14' E 001°49'0 0.0
2018-May-13 14:21N 41°14' E 001°49'0 0.0
2018-May-13 13:54N 41°14' E 001°49'0 0.0
2018-May-13 13:24N 41°14' E 001°49'0 0.0
2018-May-13 12:51N 41°14' E 001°49'0 0.0
2018-May-13 10:06N 41°14' E 001°49'0 0.0
2018-May-13 09:54N 41°14' E 001°49'0 0.0
2018-May-13 09:27N 41°14' E 001°49'0 0.0
2018-May-13 08:54N 41°14' E 001°49'0 0.0
2018-May-13 08:27N 41°14' E 001°49'0 0.0
2018-May-13 07:57N 41°14' E 001°49'0 0.0
2018-May-13 07:24N 41°14' E 001°49'0 0.0
2018-May-13 06:57N 41°14' E 001°49'0 0.0
2018-May-13 06:27N 41°14' E 001°49'0 0.0
2018-May-13 05:57N 41°14' E 001°49'0 0.0
2018-May-13 05:30N 41°14' E 001°49'0 0.0
2018-May-13 05:00N 41°14' E 001°49'0 0.0
2018-May-13 04:30N 41°14' E 001°49'0 0.0
2018-May-13 04:00N 41°14' E 001°49'0 0.0
2018-May-13 03:27N 41°14' E 001°49'0 0.0
2018-May-13 03:00N 41°14' E 001°49'0 0.0
2018-May-13 02:30N 41°14' E 001°49'0 0.0
2018-May-13 02:00N 41°14' E 001°49'0 0.0
2018-May-13 01:30N 41°14' E 001°49'0 0.0
2018-May-13 01:00N 41°14' E 001°49'0 0.0
2018-May-13 00:30N 41°14' E 001°49'0 0.0
2018-May-13 00:00N 41°14' E 001°49'0 0.0
2018-May-12 23:30N 41°14' E 001°49'0 0.0
2018-May-12 23:00N 41°14' E 001°49'0 0.0
2018-May-12 22:30N 41°14' E 001°49'0 0.0
2018-May-12 22:00N 41°14' E 001°49'0 0.0
2018-May-12 21:21N 41°14' E 001°49'0 0.0
2018-May-12 21:00N 41°14' E 001°49'0 0.0
2018-May-12 20:21N 41°14' E 001°49'0 0.0
2018-May-12 19:51N 41°14' E 001°49'0 0.0
2018-May-12 19:24N 41°14' E 001°49'0 0.0
2018-May-12 18:54N 41°14' E 001°49'0 0.0
2018-May-12 18:24N 41°14' E 001°49'0 0.0
2018-May-12 17:54N 41°14' E 001°49'0 0.0
2018-May-12 17:24N 41°14' E 001°49'0 0.0
2018-May-12 16:54N 41°14' E 001°49'0 0.0
2018-May-12 16:24N 41°14' E 001°49'0 0.0
2018-May-12 15:54N 41°14' E 001°49'0 0.0
2018-May-12 15:27N 41°14' E 001°49'0 0.0
2018-May-12 14:51N 41°14' E 001°49'0 0.0
2018-May-12 14:27N 41°14' E 001°49'0 0.0
2018-May-12 13:57N 41°14' E 001°49'0 0.0
2018-May-12 13:27N 41°14' E 001°49'0 0.0
2018-May-12 12:57N 41°14' E 001°49'0 0.0
2018-May-12 12:27N 41°14' E 001°49'0 0.0
2018-May-12 11:57N 41°14' E 001°49'0 0.0
2018-May-12 11:27N 41°14' E 001°49'0 0.0
2018-May-12 11:00N 41°14' E 001°49'0 0.0
2018-May-12 10:26N 41°14' E 001°49'0 0.0
2018-May-12 09:59N 41°14' E 001°49'0 0.0
2018-May-12 09:29N 41°14' E 001°49'0 0.0
2018-May-12 08:56N 41°14' E 001°49'0 0.0
2018-May-12 08:29N 41°14' E 001°49'0 0.0
2018-May-12 07:59N 41°14' E 001°49'0 0.0
2018-May-12 07:29N 41°14' E 001°49'0 0.0
2018-May-12 06:59N 41°14' E 001°49'0 0.0
2018-May-12 06:26N 41°14' E 001°49'0 0.0
2018-May-12 05:59N 41°14' E 001°49'0 0.0
2018-May-12 05:29N 41°14' E 001°49'0 0.0
2018-May-12 04:59N 41°14' E 001°49'0 0.0
2018-May-12 04:29N 41°14' E 001°49'0 0.0
2018-May-12 03:59N 41°14' E 001°49'0 0.0
2018-May-12 03:29N 41°14' E 001°49'0 0.0
2018-May-12 02:59N 41°14' E 001°49'0 0.0
2018-May-12 02:29N 41°14' E 001°49'0 0.0
2018-May-12 01:59N 41°14' E 001°49'0 0.0
2018-May-12 01:29N 41°14' E 001°49'0 0.0
2018-May-12 00:59N 41°14' E 001°49'0 0.0
2018-May-12 00:29N 41°14' E 001°49'0 0.0
2018-May-11 23:59N 41°14' E 001°49'0 0.0
2018-May-11 23:29N 41°14' E 001°49'0 0.0
2018-May-11 22:59N 41°14' E 001°49'0 0.0
2018-May-11 22:20N 41°14' E 001°49'0 0.0
2018-May-11 21:50N 41°14' E 001°49'0 0.0
2018-May-11 21:20N 41°14' E 001°49'0 0.0
2018-May-11 20:53N 41°14' E 001°49'0 0.0
2018-May-11 20:20N 41°14' E 001°49'0 0.0
2018-May-11 19:53N 41°14' E 001°49'0 0.0
2018-May-11 19:23N 41°14' E 001°49'0 0.0
2018-May-11 18:53N 41°14' E 001°49'0 0.0
2018-May-11 18:23N 41°14' E 001°49'0 0.0
2018-May-11 17:53N 41°14' E 001°49'0 0.0
2018-May-11 17:23N 41°14' E 001°49'0 0.0
2018-May-11 16:53N 41°14' E 001°49'0 0.0
2018-May-11 16:26N 41°14' E 001°49'0 0.0
2018-May-11 15:53N 41°14' E 001°49'0 0.0
2018-May-11 15:26N 41°14' E 001°49'0 0.0
2018-May-11 14:56N 41°14' E 001°49'0 0.0
2018-May-11 14:26N 41°14' E 001°49'0 0.0
2018-May-11 13:56N 41°14' E 001°49'0 0.0
2018-May-11 13:29N 41°14' E 001°49'0 0.0
2018-May-11 12:59N 41°14' E 001°49'0 0.0
2018-May-11 12:29N 41°14' E 001°49'0 0.0
2018-May-11 11:59N 41°14' E 001°49'0 0.0
2018-May-11 11:29N 41°14' E 001°49'0 0.0
2018-May-11 10:59N 41°14' E 001°49'0 0.0
2018-May-11 10:29N 41°14' E 001°49'0 0.0
2018-May-11 09:59N 41°14' E 001°49'0 0.0
2018-May-11 09:29N 41°14' E 001°49'0 0.0
2018-May-11 08:59N 41°14' E 001°49'0 0.0
2018-May-11 08:26N 41°14' E 001°49'0 0.0
2018-May-11 07:59N 41°14' E 001°49'0 0.0
2018-May-11 07:29N 41°14' E 001°49'0 0.0
2018-May-11 06:59N 41°14' E 001°49'0 0.0
2018-May-11 06:29N 41°14' E 001°49'0 0.0
2018-May-11 05:47N 41°14' E 001°49'0 0.0
2018-May-11 05:29N 41°14' E 001°49'0 0.0
2018-May-11 04:59N 41°14' E 001°49'0 0.0
2018-May-11 04:29N 41°14' E 001°49'0 0.0
2018-May-11 03:59N 41°14' E 001°49'0 0.0
2018-May-11 03:29N 41°14' E 001°49'0 0.0
2018-May-11 02:59N 41°14' E 001°49'0 0.0
2018-May-11 02:29N 41°14' E 001°49'0 0.0
2018-May-11 01:47N 41°14' E 001°49'0 0.0
2018-May-11 01:20N 41°14' E 001°49'0 0.0
2018-May-11 00:50N 41°14' E 001°49'0 0.0
2018-May-11 00:20N 41°14' E 001°49'0 0.0
2018-May-10 23:53N 41°14' E 001°49'0 0.0
2018-May-10 23:23N 41°14' E 001°49'0 0.0
2018-May-10 22:53N 41°14' E 001°49'0 0.0
2018-May-10 22:23N 41°14' E 001°49'0 0.0
2018-May-10 21:53N 41°14' E 001°49'0 0.0
2018-May-10 21:23N 41°14' E 001°49'0 0.0
2018-May-10 20:50N 41°14' E 001°49'0 0.0
2018-May-10 20:08N 41°14' E 001°49'0 0.0
2018-May-10 19:53N 41°14' E 001°49'0 0.0
2018-May-10 19:26N 41°14' E 001°49'0 0.0
2018-May-10 18:53N 41°14' E 001°49'0 0.0
2018-May-10 18:26N 41°14' E 001°49'0 0.0
2018-May-10 17:56N 41°14' E 001°49'0 0.0
2018-May-10 17:23N 41°14' E 001°49'0 0.0
2018-May-10 16:56N 41°14' E 001°49'0 0.0
2018-May-10 16:23N 41°14' E 001°49'0 0.0
2018-May-10 15:56N 41°14' E 001°49'0 0.0
2018-May-10 15:26N 41°14' E 001°49'0 0.0
2018-May-10 14:59N 41°14' E 001°49'0 0.0
2018-May-10 14:29N 41°14' E 001°49'0 0.0
2018-May-10 13:59N 41°14' E 001°49'0 0.0
2018-May-10 13:29N 41°14' E 001°49'0 0.0
2018-May-10 12:56N 41°14' E 001°49'0 0.0
2018-May-10 12:29N 41°14' E 001°49'0 0.0
2018-May-10 11:56N 41°14' E 001°49'0 0.0
2018-May-10 11:29N 41°14' E 001°49'0 0.0
2018-May-10 10:59N 41°14' E 001°49'0 0.0
2018-May-10 10:28N 41°14' E 001°49'0 0.0
2018-May-10 08:58N 41°14' E 001°49'0 0.0
2018-May-10 08:28N 41°14' E 001°49'0 0.0
2018-May-10 04:49N 41°14' E 001°49'0 0.0
2018-May-10 04:22N 41°14' E 001°49'0 0.0
2018-May-10 03:04N 41°14' E 001°49'0 0.0
2018-May-10 02:55N 41°14' E 001°49'0 0.0
2018-May-10 01:22N 41°14' E 001°49'0 0.0
2018-May-10 00:59N 41°14' E 001°49'0 0.0
2018-May-10 00:26N 41°14' E 001°49'0 0.0
2018-May-09 23:56N 41°14' E 001°49'0 0.0
2018-May-09 23:25N 41°14' E 001°49'0 0.0
2018-May-09 22:59N 41°14' E 001°49'0 0.0
2018-May-09 22:29N 41°14' E 001°49'0 0.0
2018-May-09 21:59N 41°14' E 001°49'0 0.0
2018-May-09 21:29N 41°14' E 001°49'0 0.0
2018-May-09 20:59N 41°14' E 001°49'0 0.0
2018-May-09 20:29N 41°14' E 001°49'0 0.0
2018-May-09 19:59N 41°14' E 001°49'0 0.0
2018-May-09 19:29N 41°14' E 001°49'0 0.0
2018-May-09 18:50N 41°14' E 001°49'0 0.0
2018-May-09 18:20N 41°14' E 001°49'0 0.0
2018-May-09 17:53N 41°14' E 001°49'0 0.0
2018-May-09 17:02N 41°14' E 001°49'0 0.0
2018-May-09 16:53N 41°14' E 001°49'0 0.0
2018-May-09 16:23N 41°14' E 001°49'0 0.0
2018-May-09 15:53N 41°14' E 001°49'0 0.0
2018-May-09 15:23N 41°14' E 001°49'0 0.0
2018-May-09 14:56N 41°14' E 001°49'0 0.0
2018-May-09 14:26N 41°14' E 001°49'0 0.0
2018-May-09 13:56N 41°14' E 001°49'0 0.0
2018-May-09 13:26N 41°14' E 001°49'0 0.0
2018-May-09 12:56N 41°14' E 001°49'0 0.0
2018-May-09 12:29N 41°14' E 001°49'0 0.0
2018-May-09 11:59N 41°14' E 001°49'0 0.0
2018-May-09 11:28N 41°14' E 001°49'0 0.0
2018-May-09 10:49N 41°14' E 001°49'0 0.0
2018-May-09 10:19N 41°14' E 001°49'0 0.0
2018-May-09 09:49N 41°14' E 001°49'0 0.0
2018-May-09 09:22N 41°14' E 001°49'0 0.0
2018-May-09 08:52N 41°14' E 001°49'0 0.0
2018-May-09 08:19N 41°14' E 001°49'0 0.0
2018-May-09 07:52N 41°14' E 001°49'0 0.0
2018-May-09 07:19N 41°14' E 001°49'0 0.0
2018-May-09 06:55N 41°14' E 001°49'0 0.0
2018-May-09 06:25N 41°14' E 001°49'0 0.0
2018-May-09 05:55N 41°14' E 001°49'0 0.0
2018-May-09 05:25N 41°14' E 001°49'0 0.0
2018-May-09 04:55N 41°14' E 001°49'0 0.0
2018-May-09 04:28N 41°14' E 001°49'0 0.0
2018-May-09 03:58N 41°14' E 001°49'0 0.0
2018-May-09 03:25N 41°14' E 001°49'0 0.0
2018-May-09 02:58N 41°14' E 001°49'0 0.0
2018-May-09 02:25N 41°14' E 001°49'0 0.0
2018-May-09 01:58N 41°14' E 001°49'0 0.0
2018-May-09 01:28N 41°14' E 001°49'0 0.0
2018-May-09 00:58N 41°14' E 001°49'0 0.0
2018-May-09 00:28N 41°14' E 001°49'0 0.0
2018-May-08 23:58N 41°14' E 001°49'0 0.0
2018-May-08 23:28N 41°14' E 001°49'0 0.0
2018-May-08 22:49N 41°14' E 001°49'0 0.0
2018-May-08 22:19N 41°14' E 001°49'0 0.0
2018-May-08 21:49N 41°14' E 001°49'0 0.0
2018-May-08 21:19N 41°14' E 001°49'0 0.0
2018-May-08 20:52N 41°14' E 001°49'0 0.0
2018-May-08 20:22N 41°14' E 001°49'0 0.0
2018-May-08 19:52N 41°14' E 001°49'0 0.0
2018-May-08 19:22N 41°14' E 001°49'0 0.0
2018-May-08 18:52N 41°14' E 001°49'0 0.0
2018-May-08 18:25N 41°14' E 001°49'0 0.0
2018-May-08 17:55N 41°14' E 001°49'0 0.0
2018-May-08 16:28N 41°14' E 001°49'0 0.0
2018-May-08 15:55N 41°14' E 001°49'0 0.0
2018-May-08 15:25N 41°14' E 001°49'0 0.0
2018-May-08 14:58N 41°14' E 001°49'0 0.0
2018-May-08 14:25N 41°14' E 001°49'0 0.0
2018-May-08 13:46N 41°14' E 001°49'0 0.0
2018-May-08 13:25N 41°14' E 001°49'0 0.0
2018-May-08 12:58N 41°14' E 001°49'0 0.0
2018-May-08 12:16N 41°14' E 001°49'0 0.0
2018-May-08 11:43N 41°14' E 001°49'0 0.0
2018-May-08 11:19N 41°14' E 001°49'0 0.0
2018-May-08 10:58N 41°14' E 001°49'0 0.0
2018-May-08 10:28N 41°14' E 001°49'0 0.0
2018-May-08 09:49N 41°14' E 001°49'0 0.0
2018-May-08 09:22N 41°14' E 001°49'0 0.0
2018-May-08 08:52N 41°14' E 001°49'0 0.0
2018-May-08 08:22N 41°14' E 001°49'0 0.0
2018-May-08 07:49N 41°14' E 001°49'0 0.0
2018-May-08 07:22N 41°14' E 001°49'0 0.0
2018-May-08 06:52N 41°14' E 001°49'0 0.0
2018-May-08 06:22N 41°14' E 001°49'0 0.0
2018-May-08 05:55N 41°14' E 001°49'0 0.0
2018-May-08 04:52N 41°14' E 001°49'0 0.0
2018-May-08 04:10N 41°14' E 001°49'0 0.0
2018-May-08 03:52N 41°14' E 001°49'0 0.0
2018-May-08 03:28N 41°14' E 001°49'0 0.0
2018-May-08 02:58N 41°14' E 001°49'0 0.0
2018-May-08 02:28N 41°14' E 001°49'0 0.0
2018-May-08 01:58N 41°14' E 001°49'0 0.0
2018-May-08 01:28N 41°14' E 001°49'0 0.0
2018-May-08 00:58N 41°14' E 001°49'0 0.0
2018-May-08 00:28N 41°14' E 001°49'0 0.0
2018-May-07 23:31N 41°14' E 001°49'0 0.1
2018-May-07 23:28N 41°14' E 001°49'0 0.0
2018-May-07 22:58N 41°14' E 001°49'0 0.0
2018-May-07 22:28N 41°14' E 001°49'0 0.0
2018-May-07 21:49N 41°14' E 001°49'0 0.0
2018-May-07 21:19N 41°14' E 001°49'0 0.0
2018-May-07 20:46N 41°14' E 001°49'0 0.0
2018-May-07 20:01N 41°14' E 001°49'0 0.0
2018-May-07 19:46N 41°14' E 001°49'0 0.0
2018-May-07 19:22N 41°14' E 001°49'0 0.0
2018-May-07 18:07N 41°14' E 001°49'0 0.0
2018-May-07 17:40N 41°14' E 001°49'0 0.0
2018-May-07 17:22N 41°14' E 001°49'0 0.0
2018-May-07 16:55N 41°14' E 001°49'0 0.0
2018-May-07 15:28N 41°14' E 001°49'0 0.0
2018-May-07 14:58N 41°14' E 001°49'0 0.0
2018-May-07 13:25N 41°14' E 001°49'0 0.0
2018-May-07 11:13N 41°14' E 001°49'0 0.0
2018-May-07 10:43N 41°14' E 001°49'0 0.0
2018-May-07 10:28N 41°14' E 001°49'0 0.0
2018-May-07 09:49N 41°14' E 001°49'0 0.0
2018-May-07 09:19N 41°14' E 001°49'0 0.0
2018-May-07 08:07N 41°14' E 001°49'0 0.0
2018-May-07 05:52N 41°14' E 001°49'0 0.0
2018-May-07 05:25N 41°14' E 001°49'0 0.0
2018-May-07 04:52N 41°14' E 001°49'0 0.0
2018-May-07 04:19N 41°14' E 001°49'0 0.0
2018-May-07 03:55N 41°14' E 001°49'0 0.0
2018-May-07 03:25N 41°14' E 001°49'0 0.0
2018-May-07 02:52N 41°14' E 001°49'0 0.0
2018-May-07 02:28N 41°14' E 001°49'0 0.0
2018-May-07 01:58N 41°14' E 001°49'0 0.0
2018-May-07 01:28N 41°14' E 001°49'0 0.0
2018-May-07 00:58N 41°14' E 001°49'0 0.0
2018-May-07 00:28N 41°14' E 001°49'0 0.0
2018-May-06 23:58N 41°14' E 001°49'0 0.0
2018-May-06 23:28N 41°14' E 001°49'0 0.0
2018-May-06 22:58N 41°14' E 001°49'0 0.0
2018-May-06 22:19N 41°14' E 001°49'0 0.0
2018-May-06 21:58N 41°14' E 001°49'0 0.0
2018-May-06 21:13N 41°14' E 001°49'0 0.0
2018-May-06 20:58N 41°14' E 001°49'0 0.0
2018-May-06 20:16N 41°14' E 001°49'0 0.0
2018-May-06 19:46N 41°14' E 001°49'0 0.0
2018-May-06 19:19N 41°14' E 001°49'0 0.0
2018-May-06 18:52N 41°14' E 001°49'0 0.0
2018-May-06 18:22N 41°14' E 001°49'0 0.0
2018-May-06 17:37N 41°14' E 001°49'0 0.0
2018-May-06 17:19N 41°14' E 001°49'0 0.0
2018-May-06 16:55N 41°14' E 001°49'0 0.0
2018-May-06 15:52N 41°14' E 001°49'0 0.0
2018-May-06 15:25N 41°14' E 001°49'0 0.0
2018-May-06 14:52N 41°14' E 001°49'0 0.0
2018-May-06 14:22N 41°14' E 001°49'0 0.0
2018-May-06 13:58N 41°14' E 001°49'0 0.0
2018-May-06 13:25N 41°14' E 001°49'0 0.0
2018-May-06 12:58N 41°14' E 001°49'0 0.0
2018-May-06 12:25N 41°14' E 001°49'0 0.0
2018-May-06 11:58N 41°14' E 001°49'0 0.0
2018-May-06 11:28N 41°14' E 001°49'0 0.0
2018-May-06 10:43N 41°14' E 001°49'0 0.0
2018-May-06 10:28N 41°14' E 001°49'0 0.0
2018-May-06 09:58N 41°14' E 001°49'0 0.0
2018-May-06 09:28N 41°14' E 001°49'0 0.0
2018-May-06 08:49N 41°14' E 001°49'0 0.0
2018-May-06 08:19N 41°14' E 001°49'0 0.0
2018-May-06 07:49N 41°14' E 001°49'0 0.0
2018-May-06 07:16N 41°14' E 001°49'0 0.0
2018-May-06 06:52N 41°14' E 001°49'0 0.0
2018-May-06 06:22N 41°14' E 001°49'0 0.0
2018-May-06 05:52N 41°14' E 001°49'0 0.0
2018-May-06 05:22N 41°14' E 001°49'0 0.0
2018-May-06 04:55N 41°14' E 001°49'0 0.0
2018-May-06 04:22N 41°14' E 001°49'0 0.0
2018-May-06 03:55N 41°14' E 001°49'0 0.0
2018-May-06 03:25N 41°14' E 001°49'0 0.0
2018-May-06 02:55N 41°14' E 001°49'0 0.0
2018-May-06 02:28N 41°14' E 001°49'0 0.0
2018-May-06 01:58N 41°14' E 001°49'0 0.0
2018-May-06 01:25N 41°14' E 001°49'0 0.0
2018-May-06 00:58N 41°14' E 001°49'0 0.0
2018-May-06 00:28N 41°14' E 001°49'0 0.0
2018-May-05 23:58N 41°14' E 001°49'0 0.0
2018-May-05 23:28N 41°14' E 001°49'0 0.0
2018-May-05 22:58N 41°14' E 001°49'0 0.0
2018-May-05 22:28N 41°14' E 001°49'0 0.0
2018-May-05 21:58N 41°14' E 001°49'0 0.0
2018-May-05 21:28N 41°14' E 001°49'0 0.0
2018-May-05 20:49N 41°14' E 001°49'0 0.0
2018-May-05 20:28N 41°14' E 001°49'0 0.0
2018-May-05 19:49N 41°14' E 001°49'0 0.0
2018-May-05 19:22N 41°14' E 001°49'0 0.0
2018-May-05 18:52N 41°14' E 001°49'0 0.0
2018-May-05 18:22N 41°14' E 001°49'0 0.0
2018-May-05 17:52N 41°14' E 001°49'  

Dump ship's entire track history